sensor_id;sensor_type;location;lat;lon;timestamp;temperature;humidity
27506;DHT22;14939;43.596;1.320;2022-09-09T00:02:01;18.80;97.30
27506;DHT22;14939;43.596;1.320;2022-09-09T00:04:35;18.90;93.30
27506;DHT22;14939;43.596;1.320;2022-09-09T00:10:13;19.00;92.50
27506;DHT22;14939;43.596;1.320;2022-09-09T00:12:53;19.00;92.80
27506;DHT22;14939;43.596;1.320;2022-09-09T00:15:26;19.10;92.00
27506;DHT22;14939;43.596;1.320;2022-09-09T00:28:46;18.90;92.10
27506;DHT22;14939;43.596;1.320;2022-09-09T00:31:18;18.90;91.40
27506;DHT22;14939;43.596;1.320;2022-09-09T00:33:46;18.90;90.50
27506;DHT22;14939;43.596;1.320;2022-09-09T00:36:17;19.00;90.40
27506;DHT22;14939;43.596;1.320;2022-09-09T00:38:52;19.10;88.20
27506;DHT22;14939;43.596;1.320;2022-09-09T00:47:44;19.10;87.50
27506;DHT22;14939;43.596;1.320;2022-09-09T00:52:38;19.20;89.60
27506;DHT22;14939;43.596;1.320;2022-09-09T00:57:51;19.20;89.40
27506;DHT22;14939;43.596;1.320;2022-09-09T01:08:09;19.00;87.60
27506;DHT22;14939;43.596;1.320;2022-09-09T01:10:51;19.00;89.70
27506;DHT22;14939;43.596;1.320;2022-09-09T01:13:27;19.00;88.70
27506;DHT22;14939;43.596;1.320;2022-09-09T01:15:58;19.00;91.40
27506;DHT22;14939;43.596;1.320;2022-09-09T01:18:46;18.90;91.20
27506;DHT22;14939;43.596;1.320;2022-09-09T01:26:38;18.70;92.00
27506;DHT22;14939;43.596;1.320;2022-09-09T01:29:08;18.70;92.00
27506;DHT22;14939;43.596;1.320;2022-09-09T01:31:40;18.60;92.30
27506;DHT22;14939;43.596;1.320;2022-09-09T01:34:14;18.60;91.90
27506;DHT22;14939;43.596;1.320;2022-09-09T01:39:15;18.50;92.00
27506;DHT22;14939;43.596;1.320;2022-09-09T01:41:41;18.60;92.20
27506;DHT22;14939;43.596;1.320;2022-09-09T01:44:07;18.60;92.00
27506;DHT22;14939;43.596;1.320;2022-09-09T01:46:33;18.60;91.90
27506;DHT22;14939;43.596;1.320;2022-09-09T01:49:18;18.60;91.00
27506;DHT22;14939;43.596;1.320;2022-09-09T01:54:47;18.60;90.70
27506;DHT22;14939;43.596;1.320;2022-09-09T01:57:25;18.60;90.40
27506;DHT22;14939;43.596;1.320;2022-09-09T02:00:05;18.70;90.60
27506;DHT22;14939;43.596;1.320;2022-09-09T02:05:31;18.70;90.40
27506;DHT22;14939;43.596;1.320;2022-09-09T02:08:08;18.70;90.00
27506;DHT22;14939;43.596;1.320;2022-09-09T02:10:47;18.70;90.00
27506;DHT22;14939;43.596;1.320;2022-09-09T02:13:18;18.70;87.90
27506;DHT22;14939;43.596;1.320;2022-09-09T02:18:48;18.60;89.80
27506;DHT22;14939;43.596;1.320;2022-09-09T02:21:17;18.70;88.90
27506;DHT22;14939;43.596;1.320;2022-09-09T02:23:44;18.60;89.10
27506;DHT22;14939;43.596;1.320;2022-09-09T02:26:13;18.70;89.90
27506;DHT22;14939;43.596;1.320;2022-09-09T02:28:46;18.70;89.80
27506;DHT22;14939;43.596;1.320;2022-09-09T02:31:13;18.70;88.90
27506;DHT22;14939;43.596;1.320;2022-09-09T02:33:44;18.70;88.00
27506;DHT22;14939;43.596;1.320;2022-09-09T02:36:12;18.70;88.10
27506;DHT22;14939;43.596;1.320;2022-09-09T02:38:47;18.70;88.50
27506;DHT22;14939;43.596;1.320;2022-09-09T02:41:26;18.60;90.00
27506;DHT22;14939;43.596;1.320;2022-09-09T02:43:53;18.50;89.90
27506;DHT22;14939;43.596;1.320;2022-09-09T02:49:16;18.40;90.00
27506;DHT22;14939;43.596;1.320;2022-09-09T02:51:53;18.40;90.30
27506;DHT22;14939;43.596;1.320;2022-09-09T02:54:27;18.40;90.30
27506;DHT22;14939;43.596;1.320;2022-09-09T02:57:05;18.40;89.80
27506;DHT22;14939;43.596;1.320;2022-09-09T02:59:31;18.40;90.40
27506;DHT22;14939;43.596;1.320;2022-09-09T03:01:57;18.40;90.00
27506;DHT22;14939;43.596;1.320;2022-09-09T03:04:23;18.40;90.00
27506;DHT22;14939;43.596;1.320;2022-09-09T03:06:50;18.40;89.70
27506;DHT22;14939;43.596;1.320;2022-09-09T03:09:16;18.50;90.00
27506;DHT22;14939;43.596;1.320;2022-09-09T03:11:41;18.50;90.00
27506;DHT22;14939;43.596;1.320;2022-09-09T03:14:07;18.50;89.20
27506;DHT22;14939;43.596;1.320;2022-09-09T03:16:33;18.60;88.30
27506;DHT22;14939;43.596;1.320;2022-09-09T03:19:16;18.60;89.20
27506;DHT22;14939;43.596;1.320;2022-09-09T03:21:44;18.60;87.30
27506;DHT22;14939;43.596;1.320;2022-09-09T03:24:10;18.60;88.20
27506;DHT22;14939;43.596;1.320;2022-09-09T03:26:36;18.60;88.80
27506;DHT22;14939;43.596;1.320;2022-09-09T03:29:06;18.60;87.90
27506;DHT22;14939;43.596;1.320;2022-09-09T03:31:33;18.60;88.40
27506;DHT22;14939;43.596;1.320;2022-09-09T03:33:59;18.60;89.00
27506;DHT22;14939;43.596;1.320;2022-09-09T03:36:27;18.60;88.60
27506;DHT22;14939;43.596;1.320;2022-09-09T03:38:54;18.60;90.10
27506;DHT22;14939;43.596;1.320;2022-09-09T03:41:23;18.60;88.60
27506;DHT22;14939;43.596;1.320;2022-09-09T03:43:53;18.60;90.90
27506;DHT22;14939;43.596;1.320;2022-09-09T03:46:23;18.60;89.30
27506;DHT22;14939;43.596;1.320;2022-09-09T03:48:49;18.60;89.60
27506;DHT22;14939;43.596;1.320;2022-09-09T03:51:15;18.60;89.50
27506;DHT22;14939;43.596;1.320;2022-09-09T03:53:41;18.50;90.10
27506;DHT22;14939;43.596;1.320;2022-09-09T03:56:08;18.50;89.10
27506;DHT22;14939;43.596;1.320;2022-09-09T03:58:36;18.60;89.40
27506;DHT22;14939;43.596;1.320;2022-09-09T04:01:08;18.60;89.20
27506;DHT22;14939;43.596;1.320;2022-09-09T04:03:34;18.60;89.20
27506;DHT22;14939;43.596;1.320;2022-09-09T04:06:04;18.60;89.70
27506;DHT22;14939;43.596;1.320;2022-09-09T04:08:30;18.50;90.60
27506;DHT22;14939;43.596;1.320;2022-09-09T04:11:01;18.50;91.40
27506;DHT22;14939;43.596;1.320;2022-09-09T04:13:30;18.40;91.40
27506;DHT22;14939;43.596;1.320;2022-09-09T04:15:58;18.40;91.20
27506;DHT22;14939;43.596;1.320;2022-09-09T04:18:25;18.40;91.80
27506;DHT22;14939;43.596;1.320;2022-09-09T04:20:52;18.40;91.90
27506;DHT22;14939;43.596;1.320;2022-09-09T04:23:19;18.30;92.20
27506;DHT22;14939;43.596;1.320;2022-09-09T04:25:53;18.30;93.60
27506;DHT22;14939;43.596;1.320;2022-09-09T04:28:21;18.20;93.20
27506;DHT22;14939;43.596;1.320;2022-09-09T04:30:47;18.20;92.70
27506;DHT22;14939;43.596;1.320;2022-09-09T04:33:13;18.20;93.10
27506;DHT22;14939;43.596;1.320;2022-09-09T04:35:46;18.20;92.90
27506;DHT22;14939;43.596;1.320;2022-09-09T04:38:13;18.10;93.20
27506;DHT22;14939;43.596;1.320;2022-09-09T04:40:41;18.10;93.80
27506;DHT22;14939;43.596;1.320;2022-09-09T04:43:09;18.10;93.50
27506;DHT22;14939;43.596;1.320;2022-09-09T04:45:34;18.10;93.20
27506;DHT22;14939;43.596;1.320;2022-09-09T04:48:00;18.10;93.20
27506;DHT22;14939;43.596;1.320;2022-09-09T04:50:27;18.10;93.30
27506;DHT22;14939;43.596;1.320;2022-09-09T04:52:54;18.10;93.50
27506;DHT22;14939;43.596;1.320;2022-09-09T04:55:19;18.10;93.50
27506;DHT22;14939;43.596;1.320;2022-09-09T04:57:45;18.10;93.30
27506;DHT22;14939;43.596;1.320;2022-09-09T05:00:11;18.20;93.30
27506;DHT22;14939;43.596;1.320;2022-09-09T05:02:39;18.20;93.30
27506;DHT22;14939;43.596;1.320;2022-09-09T05:05:06;18.20;93.00
27506;DHT22;14939;43.596;1.320;2022-09-09T05:07:31;18.20;93.20
27506;DHT22;14939;43.596;1.320;2022-09-09T05:09:57;18.30;93.40
27506;DHT22;14939;43.596;1.320;2022-09-09T05:12:23;18.30;93.70
27506;DHT22;14939;43.596;1.320;2022-09-09T05:14:51;18.30;94.90
27506;DHT22;14939;43.596;1.320;2022-09-09T05:17:17;18.30;95.00
27506;DHT22;14939;43.596;1.320;2022-09-09T05:19:43;18.30;94.20
27506;DHT22;14939;43.596;1.320;2022-09-09T05:22:09;18.30;94.80
27506;DHT22;14939;43.596;1.320;2022-09-09T05:24:36;18.20;96.00
27506;DHT22;14939;43.596;1.320;2022-09-09T05:27:02;18.30;96.00
27506;DHT22;14939;43.596;1.320;2022-09-09T05:29:28;18.30;96.70
27506;DHT22;14939;43.596;1.320;2022-09-09T05:31:54;18.20;98.40
27506;DHT22;14939;43.596;1.320;2022-09-09T05:34:19;18.20;99.90
27506;DHT22;14939;43.596;1.320;2022-09-09T05:36:46;18.20;99.90
27506;DHT22;14939;43.596;1.320;2022-09-09T05:39:12;18.20;99.90
27506;DHT22;14939;43.596;1.320;2022-09-09T05:41:38;18.20;99.90
27506;DHT22;14939;43.596;1.320;2022-09-09T05:44:04;18.20;99.90
27506;DHT22;14939;43.596;1.320;2022-09-09T05:46:30;18.10;99.90
27506;DHT22;14939;43.596;1.320;2022-09-09T05:48:56;18.10;99.90
27506;DHT22;14939;43.596;1.320;2022-09-09T05:51:26;18.10;99.90
27506;DHT22;14939;43.596;1.320;2022-09-09T05:53:53;18.10;99.90
27506;DHT22;14939;43.596;1.320;2022-09-09T05:56:22;18.10;99.90
27506;DHT22;14939;43.596;1.320;2022-09-09T05:58:51;18.10;99.90
27506;DHT22;14939;43.596;1.320;2022-09-09T06:01:21;18.10;99.90
27506;DHT22;14939;43.596;1.320;2022-09-09T06:03:49;18.10;99.90
27506;DHT22;14939;43.596;1.320;2022-09-09T06:06:17;18.00;99.90
27506;DHT22;14939;43.596;1.320;2022-09-09T06:08:44;18.00;99.90
27506;DHT22;14939;43.596;1.320;2022-09-09T06:13:37;18.00;99.90
27506;DHT22;14939;43.596;1.320;2022-09-09T06:16:09;18.00;99.90
27506;DHT22;14939;43.596;1.320;2022-09-09T06:18:37;18.00;99.90
27506;DHT22;14939;43.596;1.320;2022-09-09T06:21:05;18.00;99.90
27506;DHT22;14939;43.596;1.320;2022-09-09T06:23:33;18.00;99.90
27506;DHT22;14939;43.596;1.320;2022-09-09T06:26:11;17.90;99.90
27506;DHT22;14939;43.596;1.320;2022-09-09T06:28:37;17.90;99.90
27506;DHT22;14939;43.596;1.320;2022-09-09T06:31:06;18.00;99.90
27506;DHT22;14939;43.596;1.320;2022-09-09T06:33:37;18.10;99.90
27506;DHT22;14939;43.596;1.320;2022-09-09T06:36:17;18.20;99.90
27506;DHT22;14939;43.596;1.320;2022-09-09T06:38:43;18.30;99.90
27506;DHT22;14939;43.596;1.320;2022-09-09T06:41:11;18.50;99.90
27506;DHT22;14939;43.596;1.320;2022-09-09T06:43:37;18.60;99.90
27506;DHT22;14939;43.596;1.320;2022-09-09T06:48:36;18.70;99.90
27506;DHT22;14939;43.596;1.320;2022-09-09T06:51:08;18.70;99.90
27506;DHT22;14939;43.596;1.320;2022-09-09T06:53:35;18.60;99.90
27506;DHT22;14939;43.596;1.320;2022-09-09T06:56:02;18.70;99.90
27506;DHT22;14939;43.596;1.320;2022-09-09T06:58:28;18.70;99.90
27506;DHT22;14939;43.596;1.320;2022-09-09T07:01:05;18.70;99.90
27506;DHT22;14939;43.596;1.320;2022-09-09T07:03:31;18.80;99.90
27506;DHT22;14939;43.596;1.320;2022-09-09T07:05:57;18.80;99.90
27506;DHT22;14939;43.596;1.320;2022-09-09T07:08:23;18.80;99.90
27506;DHT22;14939;43.596;1.320;2022-09-09T07:10:50;18.80;99.90
27506;DHT22;14939;43.596;1.320;2022-09-09T07:13:23;18.80;99.90
27506;DHT22;14939;43.596;1.320;2022-09-09T07:15:51;18.80;99.90
27506;DHT22;14939;43.596;1.320;2022-09-09T07:18:16;18.80;99.90
27506;DHT22;14939;43.596;1.320;2022-09-09T07:20:42;18.80;99.90
27506;DHT22;14939;43.596;1.320;2022-09-09T07:23:08;18.70;99.90
27506;DHT22;14939;43.596;1.320;2022-09-09T07:25:33;18.70;99.90
27506;DHT22;14939;43.596;1.320;2022-09-09T07:27:59;18.60;99.90
27506;DHT22;14939;43.596;1.320;2022-09-09T07:30:25;18.50;99.90
27506;DHT22;14939;43.596;1.320;2022-09-09T07:32:51;18.50;99.90
27506;DHT22;14939;43.596;1.320;2022-09-09T07:35:17;18.60;99.90
27506;DHT22;14939;43.596;1.320;2022-09-09T07:37:43;18.70;99.90
27506;DHT22;14939;43.596;1.320;2022-09-09T07:40:10;18.70;99.90
27506;DHT22;14939;43.596;1.320;2022-09-09T07:42:36;18.80;99.90
27506;DHT22;14939;43.596;1.320;2022-09-09T07:45:03;18.80;99.90
27506;DHT22;14939;43.596;1.320;2022-09-09T07:47:29;18.80;99.90
27506;DHT22;14939;43.596;1.320;2022-09-09T07:49:55;18.90;99.90
27506;DHT22;14939;43.596;1.320;2022-09-09T07:52:21;18.80;99.90
27506;DHT22;14939;43.596;1.320;2022-09-09T07:54:47;18.80;99.90
27506;DHT22;14939;43.596;1.320;2022-09-09T07:57:13;18.80;99.90
27506;DHT22;14939;43.596;1.320;2022-09-09T07:59:38;18.80;99.90
27506;DHT22;14939;43.596;1.320;2022-09-09T08:02:04;18.80;99.90
27506;DHT22;14939;43.596;1.320;2022-09-09T08:04:30;18.80;99.90
27506;DHT22;14939;43.596;1.320;2022-09-09T08:06:59;18.80;99.90
27506;DHT22;14939;43.596;1.320;2022-09-09T08:09:26;18.80;99.90
27506;DHT22;14939;43.596;1.320;2022-09-09T08:11:55;18.80;99.90
27506;DHT22;14939;43.596;1.320;2022-09-09T08:14:22;18.80;99.90
27506;DHT22;14939;43.596;1.320;2022-09-09T08:16:49;18.80;99.90
27506;DHT22;14939;43.596;1.320;2022-09-09T08:19:16;18.80;99.90
27506;DHT22;14939;43.596;1.320;2022-09-09T08:21:43;18.80;99.90
27506;DHT22;14939;43.596;1.320;2022-09-09T08:24:10;18.80;99.90
27506;DHT22;14939;43.596;1.320;2022-09-09T08:26:38;18.80;99.90
27506;DHT22;14939;43.596;1.320;2022-09-09T08:29:06;18.80;99.90
27506;DHT22;14939;43.596;1.320;2022-09-09T08:31:34;18.80;99.90
27506;DHT22;14939;43.596;1.320;2022-09-09T08:34:00;18.80;99.90
27506;DHT22;14939;43.596;1.320;2022-09-09T08:36:29;18.80;99.90
27506;DHT22;14939;43.596;1.320;2022-09-09T08:38:57;18.80;99.90
27506;DHT22;14939;43.596;1.320;2022-09-09T08:44:11;18.70;99.90
27506;DHT22;14939;43.596;1.320;2022-09-09T08:51:55;18.40;99.90
27506;DHT22;14939;43.596;1.320;2022-09-09T08:54:22;18.30;99.90
27506;DHT22;14939;43.596;1.320;2022-09-09T08:56:49;17.90;99.90
27506;DHT22;14939;43.596;1.320;2022-09-09T08:59:17;17.80;99.90
27506;DHT22;14939;43.596;1.320;2022-09-09T09:01:54;17.50;99.90
27506;DHT22;14939;43.596;1.320;2022-09-09T09:12:52;15.90;99.90
27506;DHT22;14939;43.596;1.320;2022-09-09T09:15:27;15.80;99.90
27506;DHT22;14939;43.596;1.320;2022-09-09T09:17:55;15.80;99.90
27506;DHT22;14939;43.596;1.320;2022-09-09T09:21:25;15.80;99.90
27506;DHT22;14939;43.596;1.320;2022-09-09T09:24:12;16.00;99.90
27506;DHT22;14939;43.596;1.320;2022-09-09T09:26:43;16.20;99.90
27506;DHT22;14939;43.596;1.320;2022-09-09T09:29:17;16.20;99.90
27506;DHT22;14939;43.596;1.320;2022-09-09T09:31:52;16.20;99.90
27506;DHT22;14939;43.596;1.320;2022-09-09T09:34:20;16.20;99.90
27506;DHT22;14939;43.596;1.320;2022-09-09T09:36:58;16.10;99.90
27506;DHT22;14939;43.596;1.320;2022-09-09T09:39:31;16.30;99.90
27506;DHT22;14939;43.596;1.320;2022-09-09T09:42:12;16.40;99.90
27506;DHT22;14939;43.596;1.320;2022-09-09T09:44:40;16.50;99.90
27506;DHT22;14939;43.596;1.320;2022-09-09T09:47:14;16.50;99.90
27506;DHT22;14939;43.596;1.320;2022-09-09T09:49:57;16.70;99.90
27506;DHT22;14939;43.596;1.320;2022-09-09T09:52:30;16.80;99.90
27506;DHT22;14939;43.596;1.320;2022-09-09T09:54:57;16.60;99.90
27506;DHT22;14939;43.596;1.320;2022-09-09T09:57:27;16.60;99.90
27506;DHT22;14939;43.596;1.320;2022-09-09T10:00:12;16.50;99.90
27506;DHT22;14939;43.596;1.320;2022-09-09T10:02:40;16.70;99.90
27506;DHT22;14939;43.596;1.320;2022-09-09T10:05:23;16.70;99.90
27506;DHT22;14939;43.596;1.320;2022-09-09T10:08:10;16.60;99.90
27506;DHT22;14939;43.596;1.320;2022-09-09T10:14:08;16.50;99.90
27506;DHT22;14939;43.596;1.320;2022-09-09T10:36:28;17.10;99.90
27506;DHT22;14939;43.596;1.320;2022-09-09T10:55:17;17.50;99.90
27506;DHT22;14939;43.596;1.320;2022-09-09T10:57:51;17.70;99.90
27506;DHT22;14939;43.596;1.320;2022-09-09T11:00:36;17.80;99.90
27506;DHT22;14939;43.596;1.320;2022-09-09T11:03:04;18.00;99.90
27506;DHT22;14939;43.596;1.320;2022-09-09T11:05:44;18.10;99.90
27506;DHT22;14939;43.596;1.320;2022-09-09T11:08:21;18.20;99.90
27506;DHT22;14939;43.596;1.320;2022-09-09T11:11:09;18.20;99.90
27506;DHT22;14939;43.596;1.320;2022-09-09T11:14:02;18.20;99.90
27506;DHT22;14939;43.596;1.320;2022-09-09T11:16:52;18.60;99.90
27506;DHT22;14939;43.596;1.320;2022-09-09T11:21:58;18.80;99.90
27506;DHT22;14939;43.596;1.320;2022-09-09T11:24:38;18.80;99.90
27506;DHT22;14939;43.596;1.320;2022-09-09T11:27:21;18.80;99.90
27506;DHT22;14939;43.596;1.320;2022-09-09T11:38:31;18.90;99.90
27506;DHT22;14939;43.596;1.320;2022-09-09T11:41:05;19.10;99.90
27506;DHT22;14939;43.596;1.320;2022-09-09T11:46:00;19.50;99.90
27506;DHT22;14939;43.596;1.320;2022-09-09T11:51:09;19.60;99.90
27506;DHT22;14939;43.596;1.320;2022-09-09T11:58:59;19.70;99.90
27506;DHT22;14939;43.596;1.320;2022-09-09T12:01:37;19.90;99.90
27506;DHT22;14939;43.596;1.320;2022-09-09T12:12:32;20.50;99.90
27506;DHT22;14939;43.596;1.320;2022-09-09T12:17:51;20.80;99.90
27506;DHT22;14939;43.596;1.320;2022-09-09T12:20:36;21.10;99.90
27506;DHT22;14939;43.596;1.320;2022-09-09T12:28:52;21.30;99.90
27506;DHT22;14939;43.596;1.320;2022-09-09T12:34:10;21.50;99.90
27506;DHT22;14939;43.596;1.320;2022-09-09T12:36:37;21.70;99.90
27506;DHT22;14939;43.596;1.320;2022-09-09T12:39:22;21.70;99.90
27506;DHT22;14939;43.596;1.320;2022-09-09T12:41:52;21.00;99.90
27506;DHT22;14939;43.596;1.320;2022-09-09T12:44:24;21.20;99.90
27506;DHT22;14939;43.596;1.320;2022-09-09T12:46:51;21.20;99.90
27506;DHT22;14939;43.596;1.320;2022-09-09T12:49:36;21.10;99.90
27506;DHT22;14939;43.596;1.320;2022-09-09T12:52:16;20.40;99.90
27506;DHT22;14939;43.596;1.320;2022-09-09T12:54:47;20.00;99.90
27506;DHT22;14939;43.596;1.320;2022-09-09T12:57:14;20.50;99.90
27506;DHT22;14939;43.596;1.320;2022-09-09T12:59:42;20.30;99.90
27506;DHT22;14939;43.596;1.320;2022-09-09T13:02:26;20.20;99.90
27506;DHT22;14939;43.596;1.320;2022-09-09T13:04:52;20.90;99.90
27506;DHT22;14939;43.596;1.320;2022-09-09T13:07:20;21.60;99.90
27506;DHT22;14939;43.596;1.320;2022-09-09T13:09:48;21.90;99.90
27506;DHT22;14939;43.596;1.320;2022-09-09T13:12:18;21.70;99.90
27506;DHT22;14939;43.596;1.320;2022-09-09T13:14:46;22.20;99.90
27506;DHT22;14939;43.596;1.320;2022-09-09T13:17:24;22.60;92.10
27506;DHT22;14939;43.596;1.320;2022-09-09T13:19:52;22.30;90.40
27506;DHT22;14939;43.596;1.320;2022-09-09T13:22:36;22.90;85.70
27506;DHT22;14939;43.596;1.320;2022-09-09T13:25:04;23.20;83.60
27506;DHT22;14939;43.596;1.320;2022-09-09T13:27:35;23.40;82.90
27506;DHT22;14939;43.596;1.320;2022-09-09T13:30:21;23.50;79.60
27506;DHT22;14939;43.596;1.320;2022-09-09T13:33:34;23.30;74.20
27506;DHT22;14939;43.596;1.320;2022-09-09T13:35:35;23.20;77.80
27506;DHT22;14939;43.596;1.320;2022-09-09T13:38:08;23.60;75.20
27506;DHT22;14939;43.596;1.320;2022-09-09T13:40:35;23.70;72.80
27506;DHT22;14939;43.596;1.320;2022-09-09T13:43:02;23.30;73.10
27506;DHT22;14939;43.596;1.320;2022-09-09T13:45:29;23.50;82.20
27506;DHT22;14939;43.596;1.320;2022-09-09T13:47:55;23.30;75.00
27506;DHT22;14939;43.596;1.320;2022-09-09T13:52:47;23.80;77.70
27506;DHT22;14939;43.596;1.320;2022-09-09T13:55:14;24.00;73.70
27506;DHT22;14939;43.596;1.320;2022-09-09T13:57:50;24.20;77.60
27506;DHT22;14939;43.596;1.320;2022-09-09T14:00:16;23.90;69.00
27506;DHT22;14939;43.596;1.320;2022-09-09T14:02:42;23.70;71.60
27506;DHT22;14939;43.596;1.320;2022-09-09T14:05:09;23.80;73.80
27506;DHT22;14939;43.596;1.320;2022-09-09T14:07:36;23.80;71.10
27506;DHT22;14939;43.596;1.320;2022-09-09T14:10:04;23.60;68.40
27506;DHT22;14939;43.596;1.320;2022-09-09T14:12:30;23.40;70.90
27506;DHT22;14939;43.596;1.320;2022-09-09T14:14:56;23.00;73.30
27506;DHT22;14939;43.596;1.320;2022-09-09T14:17:21;23.20;76.10
27506;DHT22;14939;43.596;1.320;2022-09-09T14:19:48;23.60;73.80
27506;DHT22;14939;43.596;1.320;2022-09-09T14:22:14;23.90;69.10
27506;DHT22;14939;43.596;1.320;2022-09-09T14:24:39;23.90;64.80
27506;DHT22;14939;43.596;1.320;2022-09-09T14:27:06;23.80;67.30
27506;DHT22;14939;43.596;1.320;2022-09-09T14:29:32;23.90;70.20
27506;DHT22;14939;43.596;1.320;2022-09-09T14:31:58;24.20;66.00
27506;DHT22;14939;43.596;1.320;2022-09-09T14:34:26;24.30;61.70
27506;DHT22;14939;43.596;1.320;2022-09-09T14:36:51;23.80;62.20
27506;DHT22;14939;43.596;1.320;2022-09-09T14:39:17;23.30;62.80
27506;DHT22;14939;43.596;1.320;2022-09-09T14:41:43;23.50;65.00
27506;DHT22;14939;43.596;1.320;2022-09-09T14:44:08;24.00;62.70
27506;DHT22;14939;43.596;1.320;2022-09-09T14:46:34;24.40;60.90
27506;DHT22;14939;43.596;1.320;2022-09-09T14:49:00;24.00;59.60
27506;DHT22;14939;43.596;1.320;2022-09-09T14:51:26;24.50;59.20
27506;DHT22;14939;43.596;1.320;2022-09-09T14:53:55;24.30;60.00
27506;DHT22;14939;43.596;1.320;2022-09-09T14:56:25;24.20;58.90
27506;DHT22;14939;43.596;1.320;2022-09-09T14:58:54;25.00;58.80
27506;DHT22;14939;43.596;1.320;2022-09-09T15:01:21;27.90;52.90
27506;DHT22;14939;43.596;1.320;2022-09-09T15:03:53;27.10;48.50
27506;DHT22;14939;43.596;1.320;2022-09-09T15:06:20;26.30;53.40
27506;DHT22;14939;43.596;1.320;2022-09-09T15:08:46;25.30;53.50
27506;DHT22;14939;43.596;1.320;2022-09-09T15:11:14;25.50;52.40
27506;DHT22;14939;43.596;1.320;2022-09-09T15:13:41;26.60;51.00
27506;DHT22;14939;43.596;1.320;2022-09-09T15:16:14;25.90;51.10
27506;DHT22;14939;43.596;1.320;2022-09-09T15:18:41;27.80;46.80
27506;DHT22;14939;43.596;1.320;2022-09-09T15:21:15;27.00;48.80
27506;DHT22;14939;43.596;1.320;2022-09-09T15:23:42;26.20;52.10
27506;DHT22;14939;43.596;1.320;2022-09-09T15:26:08;25.80;52.70
27506;DHT22;14939;43.596;1.320;2022-09-09T15:28:36;26.50;51.10
27506;DHT22;14939;43.596;1.320;2022-09-09T15:31:09;27.50;47.90
27506;DHT22;14939;43.596;1.320;2022-09-09T15:33:35;29.70;41.70
27506;DHT22;14939;43.596;1.320;2022-09-09T15:38:59;30.20;32.60
27506;DHT22;14939;43.596;1.320;2022-09-09T15:41:25;30.00;32.90
27506;DHT22;14939;43.596;1.320;2022-09-09T15:43:52;29.80;33.90
27506;DHT22;14939;43.596;1.320;2022-09-09T15:46:27;29.10;32.10
27506;DHT22;14939;43.596;1.320;2022-09-09T15:48:55;29.60;30.40
27506;DHT22;14939;43.596;1.320;2022-09-09T15:51:22;29.60;31.90
27506;DHT22;14939;43.596;1.320;2022-09-09T15:53:49;28.30;33.90
27506;DHT22;14939;43.596;1.320;2022-09-09T15:56:18;29.10;35.90
27506;DHT22;14939;43.596;1.320;2022-09-09T15:58:44;30.30;32.90
27506;DHT22;14939;43.596;1.320;2022-09-09T16:01:10;31.10;32.50
27506;DHT22;14939;43.596;1.320;2022-09-09T16:03:39;31.70;29.30
27506;DHT22;14939;43.596;1.320;2022-09-09T16:06:07;31.90;28.70
27506;DHT22;14939;43.596;1.320;2022-09-09T16:08:37;32.10;26.80
27506;DHT22;14939;43.596;1.320;2022-09-09T16:11:07;32.60;27.00
27506;DHT22;14939;43.596;1.320;2022-09-09T16:13:38;31.90;26.30
27506;DHT22;14939;43.596;1.320;2022-09-09T16:16:05;32.50;27.00
27506;DHT22;14939;43.596;1.320;2022-09-09T16:18:39;33.60;25.50
27506;DHT22;14939;43.596;1.320;2022-09-09T16:21:06;34.10;22.90
27506;DHT22;14939;43.596;1.320;2022-09-09T16:23:36;34.70;21.50
27506;DHT22;14939;43.596;1.320;2022-09-09T16:26:02;33.00;21.10
27506;DHT22;14939;43.596;1.320;2022-09-09T16:28:28;31.60;23.40
27506;DHT22;14939;43.596;1.320;2022-09-09T16:30:54;31.80;23.90
27506;DHT22;14939;43.596;1.320;2022-09-09T16:33:21;31.20;25.10
27506;DHT22;14939;43.596;1.320;2022-09-09T16:35:47;31.50;24.40
27506;DHT22;14939;43.596;1.320;2022-09-09T16:38:14;32.20;23.10
27506;DHT22;14939;43.596;1.320;2022-09-09T16:40:40;32.00;23.50
27506;DHT22;14939;43.596;1.320;2022-09-09T16:43:07;32.10;23.30
27506;DHT22;14939;43.596;1.320;2022-09-09T16:45:33;31.00;24.10
27506;DHT22;14939;43.596;1.320;2022-09-09T16:47:59;30.60;25.40
27506;DHT22;14939;43.596;1.320;2022-09-09T16:50:26;28.40;27.00
27506;DHT22;14939;43.596;1.320;2022-09-09T16:52:52;26.80;29.80
27506;DHT22;14939;43.596;1.320;2022-09-09T16:55:19;26.80;31.30
27506;DHT22;14939;43.596;1.320;2022-09-09T16:57:46;25.60;33.60
27506;DHT22;14939;43.596;1.320;2022-09-09T17:00:15;25.20;35.70
27506;DHT22;14939;43.596;1.320;2022-09-09T17:02:42;26.20;34.80
27506;DHT22;14939;43.596;1.320;2022-09-09T17:05:08;27.40;32.60
27506;DHT22;14939;43.596;1.320;2022-09-09T17:07:34;28.80;29.10
27506;DHT22;14939;43.596;1.320;2022-09-09T17:10:01;29.30;29.70
27506;DHT22;14939;43.596;1.320;2022-09-09T17:12:27;30.30;26.90
27506;DHT22;14939;43.596;1.320;2022-09-09T17:14:53;30.50;26.30
27506;DHT22;14939;43.596;1.320;2022-09-09T17:17:20;30.50;26.60
27506;DHT22;14939;43.596;1.320;2022-09-09T17:19:46;30.90;25.90
27506;DHT22;14939;43.596;1.320;2022-09-09T17:22:12;30.20;25.60
27506;DHT22;14939;43.596;1.320;2022-09-09T17:24:38;29.60;27.90
27506;DHT22;14939;43.596;1.320;2022-09-09T17:27:04;29.60;27.50
27506;DHT22;14939;43.596;1.320;2022-09-09T17:29:30;30.30;26.80
27506;DHT22;14939;43.596;1.320;2022-09-09T17:31:55;30.30;25.80
27506;DHT22;14939;43.596;1.320;2022-09-09T17:34:21;30.40;26.00
27506;DHT22;14939;43.596;1.320;2022-09-09T17:36:48;30.00;25.80
27506;DHT22;14939;43.596;1.320;2022-09-09T17:39:14;29.50;25.60
27506;DHT22;14939;43.596;1.320;2022-09-09T17:41:40;29.30;26.60
27506;DHT22;14939;43.596;1.320;2022-09-09T17:44:07;29.00;26.50
27506;DHT22;14939;43.596;1.320;2022-09-09T17:46:38;28.70;26.20
27506;DHT22;14939;43.596;1.320;2022-09-09T17:49:07;28.40;27.10
27506;DHT22;14939;43.596;1.320;2022-09-09T17:51:35;27.80;28.20
27506;DHT22;14939;43.596;1.320;2022-09-09T17:54:07;27.20;27.60
27506;DHT22;14939;43.596;1.320;2022-09-09T17:56:35;26.20;30.00
27506;DHT22;14939;43.596;1.320;2022-09-09T17:59:03;25.20;29.50
27506;DHT22;14939;43.596;1.320;2022-09-09T18:01:31;24.40;31.50
27506;DHT22;14939;43.596;1.320;2022-09-09T18:04:02;24.10;33.70
27506;DHT22;14939;43.596;1.320;2022-09-09T18:06:32;23.70;33.80
27506;DHT22;14939;43.596;1.320;2022-09-09T18:09:00;23.50;35.20
27506;DHT22;14939;43.596;1.320;2022-09-09T18:11:29;23.30;35.70
27506;DHT22;14939;43.596;1.320;2022-09-09T18:13:57;23.10;35.80
27506;DHT22;14939;43.596;1.320;2022-09-09T18:16:26;23.00;36.80
27506;DHT22;14939;43.596;1.320;2022-09-09T18:18:54;22.70;37.40
27506;DHT22;14939;43.596;1.320;2022-09-09T18:21:20;22.50;38.10
27506;DHT22;14939;43.596;1.320;2022-09-09T18:23:48;22.40;38.00
27506;DHT22;14939;43.596;1.320;2022-09-09T18:26:24;22.30;38.90